»·PEaware :: N682MA KSBA-KBUR

N682MA :: KSBA-KBUR

FLIGHT INFORMATION

Flight Status: Arrived
Operator: Privately registered:
United States
More flights under this callsign
Pilot: Oshane D. (17945)
Aircraft: CESSNA 172 SKYHAWK
(C172)
More flights by this aircraft type
Origin: KSBA Santa Barbara Mun
United States
Destination: KBUR Bob Hope-Burbank
United States
More flights between these airports :: More routes between these airports
Route:
File this flight plan on PilotEdge
Remarks:
Altitude:
(Current/Filed)
3,500ft
Speed:
(Current/Filed)
119kts
Departed: 30-Dec-19 12:50 PM
Arrived: 30-Dec-19 01:43 PM
Distance/Time
Traveled:
75nm/0:53
Distance/Time
To Go:
Arrived

Flight Plot

Page will automatically refresh every two minutes.


Map Options




Map Legend


Flown Route
Filed Route
Departure Airport
Arrival Airport
Navaid (VOR, NDB)
Fix

Horizontal Profiles

Position Reports

Time Latitude Longitude Heading Altitude Ground
Speed
30-Dec-19 12:27 34.422664 -119.835593 340 14ft 0kts
30-Dec-19 12:28 34.422664 -119.835593 340 14ft 0kts
30-Dec-19 12:29 34.422664 -119.835593 340 14ft 0kts
30-Dec-19 12:30 34.422664 -119.835594 340 14ft 0kts
30-Dec-19 12:31 34.422664 -119.835594 340 14ft 0kts
30-Dec-19 12:32 34.422665 -119.835594 340 14ft 0kts
30-Dec-19 12:33 34.422665 -119.835594 340 14ft 0kts
30-Dec-19 12:34 34.422665 -119.835594 340 14ft 0kts
30-Dec-19 12:35 34.422665 -119.835594 340 14ft 0kts
30-Dec-19 12:36 34.422665 -119.835594 340 14ft 0kts
30-Dec-19 12:37 34.422665 -119.835594 340 14ft 0kts
30-Dec-19 12:38 34.422665 -119.835594 340 14ft 0kts
30-Dec-19 12:39 34.422665 -119.835594 340 14ft 0kts
30-Dec-19 12:40 34.422669 -119.835596 340 14ft 0kts
30-Dec-19 12:41 34.422671 -119.835596 339 14ft 0kts
30-Dec-19 12:42 34.422693 -119.835606 340 14ft 0kts
30-Dec-19 12:43 34.422805 -119.835708 304 14ft 3kts
30-Dec-19 12:44 34.423469 -119.837358 336 14ft 8kts
30-Dec-19 12:45 34.426625 -119.838190 33 13ft 9kts
30-Dec-19 12:46 34.426964 -119.834637 9 12ft 0kts
30-Dec-19 12:47 34.426964 -119.834637 9 12ft 0kts
30-Dec-19 12:48 34.427718 -119.834774 318 12ft 9kts
30-Dec-19 12:49 34.427832 -119.845169 269 280ft 73kts
30-Dec-19 12:50 34.428117 -119.869806 264 1314ft 77kts
30-Dec-19 12:51 34.425751 -119.902021 261 1598ft 109kts
30-Dec-19 12:52 34.424405 -119.941799 249 1612ft 122kts
30-Dec-19 12:53 34.409576 -119.933397 76 2103ft 84kts
30-Dec-19 12:54 34.413002 -119.905780 87 2933ft 78kts
30-Dec-19 12:55 34.414326 -119.881017 82 3664ft 80kts
30-Dec-19 12:56 34.414918 -119.851280 83 3595ft 87kts
30-Dec-19 12:57 34.414757 -119.823668 91 3567ft 78kts
30-Dec-19 12:58 34.413219 -119.798863 83 3646ft 71kts
30-Dec-19 12:59 34.415230 -119.774826 91 3682ft 77kts
30-Dec-19 13:00 34.411273 -119.748728 99 3680ft 82kts
30-Dec-19 13:01 34.405740 -119.722031 96 3679ft 81kts
30-Dec-19 13:02 34.400921 -119.693800 95 3579ft 83kts
30-Dec-19 13:03 34.396688 -119.666535 94 3579ft 81kts
30-Dec-19 13:04 34.392655 -119.639480 94 3561ft 81kts
30-Dec-19 13:05 34.388670 -119.612358 94 3561ft 81kts
30-Dec-19 13:07 34.386200 -119.590709 93 3562ft 81kts
30-Dec-19 13:08 34.382791 -119.563393 93 3563ft 83kts
30-Dec-19 13:09 34.378903 -119.535086 94 3561ft 86kts
30-Dec-19 13:10 34.374776 -119.506051 94 3569ft 96kts
30-Dec-19 13:11 34.369883 -119.472400 94 3561ft 96kts
30-Dec-19 13:12 34.364981 -119.438811 95 3561ft 104kts
30-Dec-19 13:13 34.359889 -119.404211 95 3560ft 103kts
30-Dec-19 13:14 34.354788 -119.369884 95 3561ft 103kts
30-Dec-19 13:15 34.349642 -119.335371 95 3566ft 105kts
30-Dec-19 13:16 34.344425 -119.300247 95 3564ft 105kts
30-Dec-19 13:17 34.339274 -119.265513 95 3565ft 104kts
30-Dec-19 13:18 34.334104 -119.230692 95 3565ft 105kts
30-Dec-19 13:19 34.328897 -119.195693 95 3564ft 106kts
30-Dec-19 13:20 34.323571 -119.160337 95 3565ft 106kts
30-Dec-19 13:21 34.318223 -119.124740 95 3564ft 107kts
30-Dec-19 13:22 34.312853 -119.088913 96 3564ft 108kts
30-Dec-19 13:23 34.307452 -119.052925 95 3563ft 108kts
30-Dec-19 13:24 34.302010 -119.016789 96 3566ft 109kts
30-Dec-19 13:25 34.296518 -118.980310 96 3572ft 110kts
30-Dec-19 13:26 34.290978 -118.943656 96 3576ft 110kts
30-Dec-19 13:27 34.285373 -118.906877 96 3583ft 111kts
30-Dec-19 13:28 34.279754 -118.869961 96 3589ft 111kts
30-Dec-19 13:28 34.275061 -118.839099 96 3593ft 112kts
30-Dec-19 13:30 34.268411 -118.795515 96 3600ft 112kts
30-Dec-19 13:30 34.263608 -118.764057 96 3600ft 113kts
30-Dec-19 13:31 34.257739 -118.726358 96 3600ft 113kts
30-Dec-19 13:32 34.251905 -118.688404 96 3600ft 114kts
30-Dec-19 13:33 34.246013 -118.650077 94 3602ft 117kts
30-Dec-19 13:34 34.240051 -118.611322 96 3599ft 116kts
30-Dec-19 13:35 34.234092 -118.572755 96 3598ft 116kts
30-Dec-19 13:36 34.228111 -118.534163 96 3596ft 116kts
30-Dec-19 13:37 34.229291 -118.496689 47 3514ft 116kts
30-Dec-19 13:38 34.228961 -118.466103 126 3561ft 110kts
30-Dec-19 13:39 34.208764 -118.440429 137 2794ft 113kts
30-Dec-19 13:40 34.198669 -118.408777 85 1772ft 98kts
30-Dec-19 13:41 34.198211 -118.379719 92 1056ft 65kts
30-Dec-19 13:42 34.197727 -118.361941 81 719ft 22kts
30-Dec-19 13:43 34.198621 -118.360252 355 719ft 0kts
30-Dec-19 13:44 34.198724 -118.360245 14 719ft 4kts
30-Dec-19 13:45 34.199640 -118.358659 292 718ft 10kts
30-Dec-19 13:46 34.200396 -118.358929 255 721ft 0kts
30-Dec-19 13:47 34.200396 -118.358929 254 721ft 0kts
30-Dec-19 13:48 34.200396 -118.358929 254 721ft 0kts
30-Dec-19 13:49 34.200396 -118.358929 254 721ft 0kts
30-Dec-19 13:50 34.200396 -118.358929 254 721ft 0kts
30-Dec-19 13:51 34.200396 -118.358929 254 721ft 0kts
30-Dec-19 13:52 34.200396 -118.358929 254 721ft 0kts
30-Dec-19 13:53 34.200396 -118.358929 254 721ft 0kts
30-Dec-19 13:54 34.200396 -118.358929 254 721ft 0kts
30-Dec-19 13:55 34.200396 -118.358929 254 721ft 0kts
30-Dec-19 13:56 34.200396 -118.358929 254 721ft 0kts

Navigation Log

Ident Type
Flight plan parsing failed, navigation log unavailable